.
WxDataArchive / Data Records for 2006-07-07
2006-07-06 July 2006 2006-07-08

Data Records for Friday, 07 July 2006

Time	Temp	Chill	HIndex	Humid	Dewpt	 Wind 	HiWind	WindDir	Rain 	Barom 
-----	----	-----	------	-----	-----	------	------	-------	-----	----- 
00:00	60.2	60.2	60.2	79	53.7	0	0	---	0.00	30.249 
00:05	60.1	60.1	60.1	81	54.2	0	0	---	0.00	30.249 
00:10	59.9	59.9	59.9	81	54.1	0	0	---	0.00	30.249 
00:15	59.8	59.8	59.8	81	54.0	0	0	---	0.00	30.247 
00:20	59.6	59.6	59.6	82	54.1	0	0	---	0.00	30.247 
00:25	59.3	59.3	59.3	82	53.8	0	0	---	0.00	30.247 
00:30	59.2	59.2	59.2	82	53.7	0	0	---	0.00	30.247 
00:35	59.2	59.2	59.2	83	54.0	0	0	---	0.00	30.247 
00:40	59.0	59.0	59.0	84	54.2	0	0	---	0.00	30.247 
00:45	58.9	58.9	58.9	84	54.1	0	0	---	0.00	30.248 
00:50	58.9	58.9	58.9	84	54.1	0	0	---	0.00	30.248 
00:55	58.7	58.7	58.7	84	53.9	0	0	---	0.00	30.248 
01:00	58.7	58.7	58.7	84	53.9	0	0	---	0.00	30.250 
01:05	58.6	58.6	58.6	84	53.8	0	0	---	0.00	30.250 
01:10	58.4	58.4	58.4	84	53.6	0	0	---	0.00	30.250 
01:15	58.4	58.4	58.4	84	53.6	0	0	---	0.00	30.249 
01:20	58.3	58.3	58.3	84	53.5	0	0	---	0.00	30.249 
01:25	58.3	58.3	58.3	84	53.5	0	0	---	0.00	30.249 
01:30	58.1	58.1	58.1	85	53.6	0	0	---	0.00	30.249 
01:35	58.1	58.1	58.1	85	53.6	0	0	---	0.00	30.249 
01:40	58.0	58.0	58.0	85	53.5	0	0	---	0.00	30.249 
01:45	57.8	57.8	57.8	85	53.3	0	0	---	0.00	30.252 
01:50	57.8	57.8	57.8	86	53.6	0	0	---	0.00	30.252 
01:55	57.6	57.6	57.6	86	53.4	0	0	---	0.00	30.252 
02:00	57.5	57.5	57.5	87	53.7	0	0	---	0.00	30.254 
02:05	57.3	57.3	57.3	87	53.5	0	0	---	0.00	30.254 
02:10	57.3	57.3	57.3	87	53.5	0	0	---	0.00	30.254 
02:15	57.2	57.2	57.2	88	53.7	0	0	---	0.00	30.253 
02:20	57.0	57.0	57.0	88	53.5	0	0	---	0.00	30.253 
02:25	57.0	57.0	57.0	88	53.5	0	0	---	0.00	30.253 
02:30	56.9	56.9	56.9	88	53.4	0	0	---	0.00	30.251 
02:35	56.9	56.9	56.9	88	53.4	0	0	---	0.00	30.251 
02:40	56.7	56.7	56.7	89	53.5	0	0	---	0.00	30.251 
02:45	56.6	56.6	56.6	89	53.4	0	0	---	0.00	30.252 
02:50	56.5	56.5	56.5	89	53.3	0	0	---	0.00	30.252 
02:55	56.5	56.5	56.5	89	53.3	0	0	---	0.00	30.252 
03:00	56.3	56.3	56.3	89	53.1	0	0	---	0.00	30.252 
03:05	56.3	56.3	56.3	89	53.1	0	0	---	0.00	30.252 
03:10	56.2	56.2	56.2	89	53.0	0	0	---	0.00	30.252 
03:15	56.2	56.2	56.2	90	53.3	0	0	---	0.00	30.252 
03:20	56.0	56.0	56.0	90	53.1	0	0	---	0.00	30.252 
03:25	56.0	56.0	56.0	90	53.1	0	0	---	0.00	30.252 
03:30	56.0	56.0	56.0	90	53.1	0	0	---	0.00	30.252 
03:35	55.9	55.9	55.9	91	53.3	0	0	---	0.00	30.252 
03:40	55.9	55.9	55.9	91	53.3	0	0	---	0.00	30.252 
03:45	55.7	55.7	55.7	91	53.1	0	0	---	0.00	30.251 
03:50	55.7	55.7	55.7	91	53.1	0	0	---	0.00	30.251 
03:55	55.6	55.6	55.6	91	53.0	0	0	---	0.00	30.251 
04:00	55.6	55.6	55.6	91	53.0	0	0	---	0.00	30.251 
04:05	55.4	55.4	55.4	91	52.8	0	0	---	0.00	30.251 
04:10	55.4	55.4	55.4	91	52.8	0	0	---	0.00	30.251 
04:15	55.4	55.4	55.4	91	52.8	0	0	---	0.00	30.255 
04:20	55.3	55.3	55.3	91	52.7	0	0	---	0.00	30.255 
04:25	55.3	55.3	55.3	91	52.7	0	0	---	0.00	30.255 
04:30	55.1	55.1	55.1	91	52.5	0	0	---	0.00	30.256 
04:35	55.0	55.0	55.0	91	52.4	0	0	---	0.00	30.256 
04:40	54.8	54.8	54.8	91	52.2	0	0	---	0.00	30.256 
04:45	54.8	54.8	54.8	91	52.2	0	0	---	0.00	30.262 
04:50	54.8	54.8	54.8	92	52.5	0	0	---	0.00	30.262 
04:55	54.8	54.8	54.8	92	52.5	0	0	---	0.00	30.262 
05:00	54.8	54.8	54.8	92	52.5	0	0	---	0.00	30.267 
05:05	54.8	54.8	54.8	92	52.5	0	0	---	0.00	30.267 
05:10	55.0	55.0	55.0	91	52.4	0	0	---	0.00	30.267 
05:15	55.0	55.0	55.0	91	52.4	0	0	---	0.00	30.267 
05:20	55.0	55.0	55.0	91	52.4	0	0	---	0.00	30.267 
05:25	55.0	55.0	55.0	91	52.4	0	0	---	0.00	30.267 
05:30	55.0	55.0	55.0	91	52.4	0	0	---	0.00	30.269 
05:35	55.0	55.0	55.0	91	52.4	0	0	---	0.00	30.269 
05:40	54.8	54.8	54.8	91	52.2	0	0	---	0.00	30.269 
05:45	54.8	54.8	54.8	91	52.2	0	0	---	0.00	30.270 
05:50	54.7	54.7	54.7	91	52.1	0	0	---	0.00	30.270 
05:55	54.7	54.7	54.7	91	52.1	0	0	---	0.00	30.270 
06:00	54.5	54.5	54.5	91	51.9	0	0	---	0.00	30.278 
06:05	54.5	54.5	54.5	91	51.9	0	0	---	0.00	30.278 
06:10	54.4	54.4	54.4	91	51.8	0	0	---	0.00	30.278 
06:15	54.2	54.2	54.2	91	51.6	0	0	---	0.00	30.284 
06:20	54.2	54.2	54.2	91	51.6	0	0	---	0.00	30.284 
06:25	54.1	54.1	54.1	91	51.5	0	0	---	0.00	30.284 
06:30	53.9	53.9	53.9	91	51.3	0	0	---	0.00	30.285 
06:35	53.9	53.9	53.9	91	51.3	0	0	---	0.00	30.285 
06:40	53.9	53.9	53.9	92	51.6	0	0	---	0.00	30.285 
06:45	53.9	53.9	53.9	92	51.6	0	0	---	0.00	30.289 
06:50	53.9	53.9	53.9	92	51.6	0	0	---	0.00	30.289 
06:55	53.9	53.9	53.9	92	51.6	0	0	---	0.00	30.289 
07:00	54.1	54.1	54.1	92	51.8	0	0	---	0.00	30.298 
07:05	54.2	54.2	54.2	92	51.9	0	0	---	0.00	30.298 
07:10	54.4	54.4	54.4	92	52.1	0	0	---	0.00	30.298 
07:15	54.5	54.5	54.5	92	52.2	0	0	---	0.00	30.301 
07:20	55.0	55.0	55.0	92	52.7	0	1	315	0.00	30.301 
07:25	55.4	55.4	55.4	92	53.1	0	0	---	0.00	30.301 
07:30	55.9	55.9	55.9	92	53.6	0	0	---	0.00	30.300 
07:35	56.5	56.5	56.5	91	53.9	0	0	---	0.00	30.300 
07:40	57.0	57.0	57.0	90	54.1	0	0	---	0.00	30.300 
07:45	57.6	57.6	57.6	89	54.4	0	0	---	0.00	30.299 
07:50	58.4	58.4	58.4	88	54.9	0	0	---	0.00	30.299 
07:55	59.3	59.3	59.3	85	54.8	0	0	---	0.00	30.299 
08:00	60.1	60.1	60.1	82	54.6	0	0	---	0.00	30.302 
08:05	61.0	61.0	61.0	81	55.1	0	1	315	0.00	30.302 
08:10	62.0	62.0	62.0	78	55.1	0	2	315	0.00	30.302 
08:15	62.9	62.9	62.9	77	55.6	0	1	315	0.00	30.305 
08:20	63.5	63.5	63.5	73	54.7	0	1	315	0.00	30.305 
08:25	64.3	64.3	64.3	74	55.8	0	2	292	0.00	30.305 
08:30	65.0	65.0	65.0	71	55.4	0	2	292	0.00	30.306 
08:35	65.8	65.8	65.8	69	55.3	0	1	292	0.00	30.306 
08:40	66.3	66.3	66.3	66	54.6	0	2	292	0.00	30.306 
08:45	67.1	67.1	67.1	69	56.6	0	1	292	0.00	30.304 
08:50	67.8	67.8	67.8	65	55.6	0	2	292	0.00	30.304 
08:55	68.1	68.1	68.1	63	55.0	0	2	292	0.00	30.304 
09:00	68.6	68.6	68.6	62	55.0	0	2	292	0.00	30.311 
09:05	69.4	69.4	69.4	61	55.4	0	3	292	0.00	30.311 
09:10	69.8	69.8	69.8	60	55.3	0	1	292	0.00	30.311 
09:15	70.1	70.1	70.1	59	55.1	1	4	248	0.00	30.317 
09:20	70.4	70.4	70.4	59	55.4	0	2	248	0.00	30.317 
09:25	70.3	70.3	70.3	57	54.3	2	4	248	0.00	30.317 
09:30	70.4	70.4	70.4	57	54.4	1	2	248	0.00	30.322 
09:35	70.9	70.9	70.9	58	55.4	1	3	248	0.00	30.322 
09:40	71.6	71.6	71.6	55	54.6	0	2	248	0.00	30.322 
09:45	72.3	72.3	72.3	56	55.7	1	3	248	0.00	30.320 
09:50	72.3	72.3	72.3	55	55.2	1	3	248	0.00	30.320 
09:55	73.0	73.0	73.0	54	55.4	0	1	248	0.00	30.320 
10:00	73.7	73.7	73.7	54	56.0	0	3	248	0.00	30.316 
10:05	74.4	74.4	74.4	53	56.1	1	3	248	0.00	30.316 
10:10	74.2	74.2	74.2	50	54.3	1	4	270	0.00	30.316 
10:15	74.0	74.0	74.0	52	55.2	1	2	270	0.00	30.313 
10:20	74.4	74.4	74.4	49	54.0	1	3	270	0.00	30.313 
10:25	74.4	74.4	74.4	51	55.1	1	4	248	0.00	30.313 
10:30	74.7	74.7	74.7	49	54.3	1	3	248	0.00	30.310 
10:35	74.9	74.9	74.9	47	53.3	1	2	248	0.00	30.310 
10:40	75.3	75.3	77.7	48	54.2	2	3	112	0.00	30.310 
10:45	75.4	75.4	77.8	46	53.2	1	3	248	0.00	30.311 
10:50	75.8	75.8	78.0	50	55.8	1	3	158	0.00	30.311 
10:55	76.3	76.3	78.2	51	56.8	1	3	248	0.00	30.311 
11:00	76.3	76.3	78.1	45	53.4	1	2	248	0.00	30.311 
11:05	76.7	76.7	78.1	41	51.2	1	2	180	0.00	30.311 
11:10	77.0	77.0	78.4	44	53.4	1	3	180	0.00	30.311 
11:15	77.0	77.0	78.4	44	53.4	1	2	112	0.00	30.313 
11:20	76.8	76.8	78.1	39	49.9	2	5	90	0.00	30.313 
11:25	76.8	76.8	78.2	42	51.9	2	5	68	0.00	30.313 
11:30	77.2	77.2	78.4	42	52.3	1	4	90	0.00	30.311 
11:35	77.4	77.4	78.4	39	50.5	2	5	90	0.00	30.311 
11:40	77.2	77.2	78.4	42	52.3	1	3	112	0.00	30.311 
11:45	77.2	77.2	78.3	39	50.3	1	3	68	0.00	30.312 
11:50	77.2	77.2	78.5	43	52.9	1	3	68	0.00	30.312 
11:55	77.4	77.4	78.5	41	51.8	1	4	68	0.00	30.312 
12:00	77.6	77.6	78.6	41	52.0	3	6	90	0.00	30.309 
12:05	77.4	77.4	78.3	38	49.8	2	3	90	0.00	30.309 
12:10	77.6	77.6	78.5	40	51.3	1	3	90	0.00	30.309 
12:15	77.6	77.6	78.7	44	53.9	2	4	90	0.00	30.303 
12:20	77.7	77.7	78.6	41	52.1	2	4	90	0.00	30.303 
12:25	77.9	77.9	78.7	40	51.6	1	3	90	0.00	30.303 
12:30	77.9	77.9	78.6	38	50.2	1	3	90	0.00	30.300 
12:35	77.9	77.9	78.8	43	53.6	2	5	90	0.00	30.300 
12:40	78.1	78.1	78.7	39	51.1	1	3	90	0.00	30.300 
12:45	78.6	78.6	79.0	39	51.5	1	3	90	0.00	30.296 
12:50	78.3	78.3	79.0	42	53.3	1	3	22	0.00	30.296 
12:55	78.5	78.5	79.0	40	52.1	2	6	90	0.00	30.296 
13:00	78.3	78.3	78.8	39	51.3	3	7	90	0.00	30.298 
13:05	78.1	78.1	78.7	39	51.1	2	4	90	0.00	30.298 
13:10	77.9	77.9	78.7	41	52.3	2	5	112	0.00	30.298 
13:15	78.1	78.1	78.7	38	50.4	1	3	248	0.00	30.297 
13:20	78.3	78.3	78.8	39	51.3	1	3	248	0.00	30.297 
13:25	78.1	78.1	78.7	39	51.1	2	4	90	0.00	30.297 
13:30	78.1	78.1	78.7	39	51.1	2	5	90	0.00	30.293 
13:35	78.6	78.6	79.1	41	52.9	2	5	90	0.00	30.293 
13:40	78.8	78.8	79.0	37	50.3	2	5	90	0.00	30.293 
13:45	78.6	78.6	78.7	35	48.6	1	5	90	0.00	30.289 
13:50	78.8	78.8	79.1	39	51.7	2	4	248	0.00	30.289 
13:55	79.6	79.6	79.7	41	53.8	2	4	90	0.00	30.289 
14:00	79.8	79.8	79.6	37	51.2	2	7	90	0.00	30.280 
14:05	79.6	79.6	79.5	38	51.7	2	6	68	0.00	30.280 
14:10	79.6	79.6	79.5	38	51.7	2	5	90	0.00	30.280 
14:15	79.2	79.2	79.2	37	50.7	2	4	90	0.00	30.282 
14:20	78.8	78.8	79.4	43	54.4	1	4	90	0.00	30.282 
14:25	79.4	79.4	79.2	36	50.1	1	3	90	0.00	30.282 
14:30	79.8	79.8	79.6	37	51.2	1	3	90	0.00	30.279 
14:35	80.5	80.5	80.1	38	52.5	1	3	338	0.00	30.279 
14:40	79.9	79.9	79.7	38	52.0	1	2	338	0.00	30.279 
14:45	79.8	79.8	79.9	41	54.0	0	2	338	0.00	30.276 
14:50	79.9	79.9	79.6	37	51.3	2	6	45	0.00	30.276 
14:55	79.6	79.6	79.4	37	51.0	2	6	112	0.00	30.276 
15:00	79.2	79.2	79.3	39	52.1	2	5	90	0.00	30.276 
15:05	79.6	79.6	79.4	36	50.3	2	5	248	0.00	30.276 
15:10	79.8	79.8	79.4	35	49.7	1	4	248	0.00	30.276 
15:15	79.8	79.8	79.6	37	51.2	0	2	338	0.00	30.266 
15:20	79.8	79.8	79.5	36	50.4	1	5	90	0.00	30.266 
15:25	80.1	80.1	79.8	37	51.5	1	3	68	0.00	30.266 
15:30	80.9	80.9	80.2	36	51.4	2	5	90	0.00	30.265 
15:35	80.9	80.9	80.3	37	52.2	2	4	90	0.00	30.265 
15:40	80.5	80.5	80.0	37	51.8	1	4	68	0.00	30.265 
15:45	80.9	80.9	80.4	38	52.9	1	4	270	0.00	30.261 
15:50	81.1	81.1	80.4	36	51.6	2	5	90	0.00	30.261 
15:55	80.5	80.5	79.9	35	50.3	3	6	90	0.00	30.261 
16:00	80.1	80.1	79.8	37	51.5	2	5	68	0.00	30.255 
16:05	80.7	80.7	80.1	36	51.2	1	2	90	0.00	30.255 
16:10	81.2	81.2	80.5	37	52.4	2	4	90	0.00	30.255 
16:15	81.6	81.6	80.7	36	52.0	1	4	90	0.00	30.251 
16:20	81.4	81.4	80.6	36	51.9	2	3	90	0.00	30.251 
16:25	80.7	80.7	80.2	38	52.7	2	5	90	0.00	30.251 
16:30	79.4	79.4	79.4	38	51.6	2	4	90	0.00	30.251 
16:35	78.6	78.6	78.9	38	50.8	2	6	90	0.00	30.251 
16:40	78.5	78.5	78.9	38	50.8	2	6	90	0.00	30.251 
16:45	78.3	78.3	78.8	39	51.3	1	4	90	0.00	30.253 
16:50	78.6	78.6	79.1	41	52.9	0	3	90	0.00	30.253 
16:55	79.4	79.4	79.4	38	51.6	0	2	112	0.00	30.253 
17:00	80.3	80.3	79.8	36	50.9	1	3	112	0.00	30.248 
17:05	81.1	81.1	80.4	36	51.6	1	2	225	0.00	30.248 
17:10	81.8	81.8	81.1	38	53.7	0	1	225	0.00	30.248 
17:15	81.8	81.8	80.8	35	51.4	1	5	68	0.00	30.236 
17:20	81.4	81.4	80.4	34	50.3	2	5	90	0.00	30.236 
17:25	81.1	81.1	80.4	36	51.6	2	5	90	0.00	30.236 
17:30	80.1	80.1	79.7	36	50.7	2	6	90	0.00	30.238 
17:35	79.6	79.6	79.6	39	52.4	1	4	90	0.00	30.238 
17:40	78.8	78.8	79.1	39	51.7	1	3	90	0.00	30.238 
17:45	78.6	78.6	78.9	38	50.8	1	2	90	0.00	30.235 
17:50	78.5	78.5	78.8	37	50.0	0	2	90	0.00	30.235 
17:55	78.3	78.3	78.8	39	51.3	0	3	90	0.00	30.235 
18:00	78.5	78.5	78.9	38	50.8	0	3	90	0.00	30.234 
18:05	78.8	78.8	79.2	40	52.4	1	5	90	0.00	30.234 
18:10	79.0	79.0	79.1	37	50.5	1	3	68	0.00	30.234 
18:15	79.2	79.2	79.3	38	51.4	1	3	68	0.00	30.235 
18:20	79.2	79.2	79.3	38	51.4	1	3	68	0.00	30.235 
18:25	79.2	79.2	79.3	38	51.4	1	3	90	0.00	30.235 
18:30	79.0	79.0	79.2	38	51.2	2	4	112	0.00	30.233 
18:35	79.0	79.0	79.2	39	51.9	1	2	112	0.00	30.233 
18:40	79.0	79.0	79.2	38	51.2	1	4	112	0.00	30.233 
18:45	78.8	78.8	79.0	38	51.0	1	3	90	0.00	30.228 
18:50	78.6	78.6	78.9	38	50.8	1	3	90	0.00	30.228 
18:55	78.5	78.5	78.9	38	50.8	1	3	90	0.00	30.228 
19:00	78.5	78.5	78.9	38	50.8	1	3	90	0.00	30.225 
19:05	78.5	78.5	78.9	39	51.5	0	2	112	0.00	30.225 
19:10	78.3	78.3	78.8	38	50.6	0	2	112	0.00	30.225 
19:15	78.1	78.1	78.7	38	50.4	1	3	112	0.00	30.223 
19:20	77.9	77.9	78.6	39	50.9	0	1	112	0.00	30.223 
19:25	77.9	77.9	78.6	38	50.2	1	3	112	0.00	30.223 
19:30	77.9	77.9	78.6	39	50.9	0	3	112	0.00	30.217 
19:35	77.7	77.7	78.5	39	50.7	0	2	112	0.00	30.217 
19:40	77.7	77.7	78.5	39	50.7	1	2	112	0.00	30.217 
19:45	77.7	77.7	78.5	39	50.7	1	2	112	0.00	30.217 
19:50	78.1	78.1	78.8	40	51.8	0	2	112	0.00	30.217 
19:55	78.3	78.3	78.8	39	51.3	0	1	112	0.00	30.217 
20:00	78.6	78.6	78.9	38	50.8	0	2	112	0.00	30.216 
20:05	78.6	78.6	78.9	38	50.8	0	1	112	0.00	30.216 
20:10	78.5	78.5	78.9	38	50.8	0	1	112	0.00	30.216 
20:15	78.1	78.1	78.8	41	52.5	0	1	112	0.00	30.210 
20:20	77.7	77.7	78.7	43	53.4	0	1	112	0.00	30.210 
20:25	77.2	77.2	78.5	44	53.6	0	0	---	0.00	30.210 
20:30	76.8	76.8	78.3	44	53.2	0	0	---	0.00	30.209 
20:35	76.3	76.3	78.1	46	54.0	0	1	112	0.00	30.209 
20:40	75.8	75.8	77.9	46	53.5	0	1	112	0.00	30.209 
20:45	75.4	75.4	77.8	47	53.7	0	1	112	0.00	30.212 
20:50	74.9	74.9	74.9	49	54.4	0	0	---	0.00	30.212 
20:55	74.4	74.4	74.4	50	54.5	0	0	---	0.00	30.212 
21:00	73.7	73.7	73.7	51	54.4	0	0	---	0.00	30.215 
21:05	73.0	73.0	73.0	52	54.3	0	0	---	0.00	30.215 
21:10	72.5	72.5	72.5	53	54.4	0	0	---	0.00	30.215 
21:15	72.0	72.0	72.0	54	54.4	0	0	---	0.00	30.210 
21:20	71.5	71.5	71.5	55	54.5	0	0	---	0.00	30.210 
21:25	70.9	70.9	70.9	56	54.4	0	0	---	0.00	30.210 
21:30	70.4	70.4	70.4	57	54.4	0	0	---	0.00	30.212 
21:35	70.1	70.1	70.1	57	54.1	0	0	---	0.00	30.212 
21:40	69.6	69.6	69.6	58	54.2	0	0	---	0.00	30.212 
21:45	69.3	69.3	69.3	60	54.8	0	0	---	0.00	30.217 
21:50	68.8	68.8	68.8	60	54.3	0	0	---	0.00	30.217 
21:55	68.4	68.4	68.4	62	54.9	0	0	---	0.00	30.217 
22:00	68.1	68.1	68.1	62	54.6	0	0	---	0.00	30.219 
22:05	67.6	67.6	67.6	63	54.5	0	0	---	0.00	30.219 
22:10	67.3	67.3	67.3	65	55.1	0	0	---	0.00	30.219 
22:15	66.9	66.9	66.9	66	55.2	0	0	---	0.00	30.223 
22:20	66.6	66.6	66.6	67	55.3	0	0	---	0.00	30.223 
22:25	66.3	66.3	66.3	67	55.0	0	0	---	0.00	30.223 
22:30	66.1	66.1	66.1	68	55.2	0	0	---	0.00	30.225 
22:35	65.8	65.8	65.8	68	54.9	0	0	---	0.00	30.225 
22:40	65.5	65.5	65.5	69	55.1	0	0	---	0.00	30.225 
22:45	65.3	65.3	65.3	69	54.9	0	0	---	0.00	30.229 
22:50	65.2	65.2	65.2	70	55.2	0	0	---	0.00	30.229 
22:55	64.8	64.8	64.8	71	55.2	0	0	---	0.00	30.229 
23:00	64.7	64.7	64.7	71	55.1	0	0	---	0.00	30.231 
23:05	64.5	64.5	64.5	72	55.3	0	0	---	0.00	30.231 
23:10	64.2	64.2	64.2	72	55.0	0	0	---	0.00	30.231 
23:15	64.0	64.0	64.0	73	55.2	0	0	---	0.00	30.229 
23:20	63.9	63.9	63.9	74	55.4	0	0	---	0.00	30.229 
23:25	63.7	63.7	63.7	74	55.3	0	0	---	0.00	30.229 
23:30	63.5	63.5	63.5	74	55.1	0	0	---	0.00	30.230 
23:35	63.4	63.4	63.4	74	55.0	0	0	---	0.00	30.230 
23:40	63.2	63.2	63.2	75	55.1	0	0	---	0.00	30.230 
23:45	63.1	63.1	63.1	75	55.0	0	0	---	0.00	30.229 
23:50	62.7	62.7	62.7	76	55.0	0	0	---	0.00	30.229 
23:55	62.6	62.6	62.6	77	55.3	0	0	---	0.00	30.229 

CoCoRaHS
IN-AL-39
A2 Web Hosting
Creative Commons License
GoDaddy
Look for:

loaded 2017-10-16 20:19:06 • last modified 2010-11-18 10:43:29
Privacy PolicyDisclaimer
• wx.awcolley.com is powered by PmWiki v.2002016 •
• all content (unless otherwise noted) © 2017 A W Colley